x

Nantucket Sound (44020) Wave Buoy

2:50 - Tue 28th Apr 2015 All times are EDT. -4 hours from GMT.

  • Sig Wave height 2.3ft
  • Swell Direction
  • Peak Period 4s
  • Average Period 3s
  • Wind
    20mph, 25mph gusts
  • Sea Temp 45°f
  • Luft Temp 44°f
  • Sea Pressure 1002.6mb
  • Nantucket Sound
  • Nantucket Sound

More Historic Weather Station data

Upgrade to MSW Pro to gain access to the past 30 days of data for over 8000 Wavebouys and Weather Stations around the globe.

Join Pro

Comparision Forecast

View Surf forecast
   
Di 04/28 2:50 2.5ft 4s 3s 20 25 mph 1002.6mb 45f 44f
1:50 1.3ft 3s 3s 25 29 mph 1001.5mb 45f 46f
12:50 1.6ft 3s 3s 9 11 mph 1002mb 45f 46f
Mo 04/27 11:50 2ft 4s 3s 11 16 mph 1001.8mb 45f 45f
10:50 1.3ft 3s 3s 20 25 mph 1001.2mb 46f 47f
9:50 0.7ft  -  3s 11 13 mph 1000.9mb 46f 48f
8:50 1.3ft 3s 3s 11 13 mph 1000.6mb 47f 47f
7:50 1ft 9s 3s 9 11 mph 1001mb 47f 47f
6:50 0.7ft  -  3s 13 16 mph 1000.8mb 47f 48f
5:50 0.7ft  -  3s 13 16 mph 1000.4mb 47f 49f
4:50 0.7ft  -  3s 4
mph
999.5mb 47f 50f
3:50 1ft 3s 3s 4
mph
999.7mb 47f 49f
2:50 1ft 10s 3s 7 11 mph 1000.3mb 47f 49f
1:50 0.7ft  -  3s 4 7 mph 1000.4mb 47f 49f
12:50 1ft 4s 3s 2
mph
1000.9mb 46f 49f
11:50 1ft 3s 3s 4
mph
1001.4mb 45f 48f
10:50 1.3ft 3s 3s 9 11 mph 1001.7mb 45f 48f
9:50 1.3ft 3s 3s 11 13 mph 1001.6mb 45f 48f
8:50 0.7ft  -  3s 11 16 mph 1001.7mb 46f 49f
7:50 0.7ft  -  4s 9
mph
1001.9mb 46f 48f
6:50 0.7ft  -  4s 7 9 mph 1002mb 46f 47f
5:50 0.7ft  -  3s 9
mph
1001.7mb 46f 48f
4:50 0.7ft  -  3s 9
mph
1001.7mb 46f 48f
3:50 0.7ft  -  3s 9 11 mph 1001.9mb 46f 48f
2:50 0.7ft  -  3s 9 11 mph 1001.9mb 46f 48f
1:50 1ft 2s 3s 11 13 mph 1002.2mb 45f 47f
12:50 0.7ft  -  3s 7
mph
1002.4mb 45f 46f
So 04/26 11:50 0.7ft  -  4s 7 9 mph 1002.6mb 45f 47f
10:50 0.7ft  -  3s 7
mph
1003mb 45f 47f
9:50 0.7ft  -  3s 11
mph
1003.3mb 45f 46f
8:50 1ft 3s 3s 9 11 mph 1003.6mb 46f 47f
7:50 1ft 11s 3s 11 13 mph 1003.5mb 46f 47f
6:50 1ft 10s 4s 13 16 mph 1003.3mb 47f 47f
5:50 0.7ft  -  4s 11 13 mph 1003.5mb 47f 47f
4:50 0.3ft  -  4s 9 11 mph 1003.6mb 47f 47f
3:50 0.3ft  -  4s 9 11 mph 1003.6mb 47f 47f
2:50 0.7ft  -  4s 7 9 mph 1003.7mb 48f 46f
1:50 0.3ft  -  5s 7 9 mph 1003.7mb 49f 46f
12:50 0.7ft  -  5s 4 7 mph 1004mb 47f 47f
11:50 0.7ft  -  5s  -  mph 1004.3mb 45f 47f
10:50 0.7ft  -  4s 2
mph
1004.4mb 44f 46f
9:50 0.7ft  -  3s 4 7 mph 1004.8mb 44f 45f
8:50 0.7ft  -  3s 9
mph
1004.8mb 44f 44f
7:50 1ft 3s 3s 7 9 mph 1005mb 45f 44f
6:50 1ft 10s 3s 11 13 mph 1004.7mb 46f 44f
5:50 1ft 11s 3s 11 13 mph 1004.2mb 46f 44f
4:50 1ft 11s 3s 13
mph
1004mb 46f 44f
3:50 1ft 2s 3s 13
mph
1004.3mb 46f 45f
2:50 1ft 2s 3s 11 13 mph 1004.8mb 46f 46f
1:50 0.7ft  -  4s 13 18 mph 1005.3mb 46f 46f
12:50 0.7ft  -  4s 4
mph
1005.7mb 45f 45f
Sa 04/25 11:50 0.7ft  -  4s 2 4 mph 1006.2mb 44f 45f
10:50 0.7ft  -  3s 2
mph
1006.4mb 44f 45f
9:50 1ft 3s 3s 7 9 mph 1006.6mb 44f 45f
8:50 1ft 3s 3s 13 18 mph 1006.3mb 45f 45f
7:50 1.3ft 4s 3s 11 16 mph 1006.1mb 45f 45f
6:50 1.6ft 3s 3s 16 18 mph 1006.1mb 46f 44f
5:50 1.3ft 3s 3s 16 18 mph 1006mb 46f 45f
4:50 1.6ft 3s 3s 16 18 mph 1006mb 46f 45f
3:50 1.6ft 3s 3s 20 22 mph 1006.1mb 46f 44f
2:50 2ft 3s 3s 22 25 mph 1005.8mb 46f 44f
1:50 1.6ft 3s 3s 22 27 mph 1006.5mb 46f 43f
12:50 1.3ft 3s 3s 13 16 mph 1007mb 45f 43f
11:50 1.6ft 4s 3s 16 18 mph 1007.4mb 44f 42f
10:50 1.6ft 4s 3s 13 18 mph 1007.8mb 44f 41f
9:50 2ft 4s 4s 13 16 mph 1008.1mb 44f 40f
8:50 2.5ft 4s 4s 16 22 mph 1008.4mb 44f 40f
7:50 2.5ft 4s 4s 20 25 mph 1008.4mb 44f 40f
6:50 2.5ft 4s 4s 20 25 mph 1008.4mb 45f 40f
5:50 2.5ft 4s 4s 20 25 mph 1007.9mb 45f 41f
4:50 2.5ft 4s 4s 22 27 mph 1007.3mb 45f 41f
3:50 2ft 3s 3s 22 27 mph 1007.4mb 45f 42f
2:50 2.5ft 4s 3s 20 25 mph 1007.7mb 45f 42f
1:50 2.5ft 4s 3s 22 25 mph 1007.7mb 45f 42f
12:50 2.5ft 4s 3s 22 27 mph 1007.9mb 45f 42f
Fr 04/24 11:50 2.5ft 4s 3s 22 27 mph 1008mb 45f 43f
10:50 2.5ft 4s 4s 22 27 mph 1007.8mb 45f 44f
9:50 1.6ft 4s 3s 22 27 mph 1007.9mb 45f 46f
8:50 1.6ft 4s 3s 18 20 mph 1007.5mb 45f 47f
7:50 1.3ft 4s 4s 7 9 mph 1007.1mb 45f 46f
6:50 2ft 4s 4s 11 13 mph 1006.3mb 45f 46f
5:50 2.5ft 4s 4s 18 22 mph 1005.6mb 46f 47f
4:50 2.5ft 4s 3s 18 20 mph 1005.5mb 46f 46f
3:50 1.6ft 3s 3s 18 20 mph 1005.3mb 46f 46f
2:50 1.3ft 3s 3s 16 18 mph 1005.5mb 46f 46f
1:50 1.6ft 3s 3s 18 22 mph 1005.9mb 45f 45f
12:50 2ft 3s 3s 20 22 mph 1006mb 45f 44f
11:50 2ft 3s 3s 20 22 mph 1006.2mb 45f 44f
10:50 2ft 3s 3s 16 18 mph 1006.5mb 45f 44f
9:50 2.5ft 5s 4s 18 20 mph 1006.5mb 44f 43f
8:50 3ft 5s 4s 20 27 mph 1006.1mb 44f 42f
7:50 3ft 5s 4s 22 27 mph 1006mb 45f 41f